sensor_id;sensor_type;location;lat;lon;timestamp;P1;durP1;ratioP1;P2;durP2;ratioP2
12511;SDS011;6321;53.798;10.382;2023-07-24T00:01:53;7.70;;;5.50;;
12511;SDS011;6321;53.798;10.382;2023-07-24T00:04:19;5.20;;;4.70;;
12511;SDS011;6321;53.798;10.382;2023-07-24T00:06:45;5.97;;;5.00;;
12511;SDS011;6321;53.798;10.382;2023-07-24T00:09:11;7.60;;;5.13;;
12511;SDS011;6321;53.798;10.382;2023-07-24T00:11:36;7.13;;;5.57;;
12511;SDS011;6321;53.798;10.382;2023-07-24T00:14:02;5.67;;;5.17;;
12511;SDS011;6321;53.798;10.382;2023-07-24T00:16:29;5.77;;;5.23;;
12511;SDS011;6321;53.798;10.382;2023-07-24T00:18:54;5.90;;;5.30;;
12511;SDS011;6321;53.798;10.382;2023-07-24T00:21:20;6.43;;;5.13;;
12511;SDS011;6321;53.798;10.382;2023-07-24T00:23:46;8.40;;;5.43;;
12511;SDS011;6321;53.798;10.382;2023-07-24T00:26:12;6.60;;;5.60;;
12511;SDS011;6321;53.798;10.382;2023-07-24T00:28:38;8.23;;;5.80;;
12511;SDS011;6321;53.798;10.382;2023-07-24T00:31:04;5.83;;;5.23;;
12511;SDS011;6321;53.798;10.382;2023-07-24T00:33:30;6.83;;;5.33;;
12511;SDS011;6321;53.798;10.382;2023-07-24T00:35:56;6.00;;;5.27;;
12511;SDS011;6321;53.798;10.382;2023-07-24T00:38:22;8.00;;;5.60;;
12511;SDS011;6321;53.798;10.382;2023-07-24T00:40:48;6.87;;;5.60;;
12511;SDS011;6321;53.798;10.382;2023-07-24T00:43:15;6.53;;;5.87;;
12511;SDS011;6321;53.798;10.382;2023-07-24T00:45:41;8.27;;;5.40;;
12511;SDS011;6321;53.798;10.382;2023-07-24T00:48:07;5.80;;;5.37;;
12511;SDS011;6321;53.798;10.382;2023-07-24T00:50:32;7.07;;;5.40;;
12511;SDS011;6321;53.798;10.382;2023-07-24T00:52:58;8.77;;;5.37;;
12511;SDS011;6321;53.798;10.382;2023-07-24T00:55:24;6.20;;;5.60;;
12511;SDS011;6321;53.798;10.382;2023-07-24T00:57:50;6.23;;;5.47;;
12511;SDS011;6321;53.798;10.382;2023-07-24T01:00:17;7.07;;;5.00;;
12511;SDS011;6321;53.798;10.382;2023-07-24T01:02:43;6.10;;;5.43;;
12511;SDS011;6321;53.798;10.382;2023-07-24T01:05:09;5.43;;;4.93;;
12511;SDS011;6321;53.798;10.382;2023-07-24T01:07:36;6.40;;;5.80;;
12511;SDS011;6321;53.798;10.382;2023-07-24T01:10:02;5.63;;;5.13;;
12511;SDS011;6321;53.798;10.382;2023-07-24T01:12:34;6.97;;;5.50;;
12511;SDS011;6321;53.798;10.382;2023-07-24T01:17:33;7.63;;;5.10;;
12511;SDS011;6321;53.798;10.382;2023-07-24T01:20:01;6.23;;;5.63;;
12511;SDS011;6321;53.798;10.382;2023-07-24T01:25:10;6.17;;;5.13;;
12511;SDS011;6321;53.798;10.382;2023-07-24T01:27:42;6.57;;;5.77;;
12511;SDS011;6321;53.798;10.382;2023-07-24T01:30:08;7.77;;;5.83;;
12511;SDS011;6321;53.798;10.382;2023-07-24T01:32:34;8.37;;;6.37;;
12511;SDS011;6321;53.798;10.382;2023-07-24T01:35:00;6.30;;;5.70;;
12511;SDS011;6321;53.798;10.382;2023-07-24T01:37:26;6.53;;;5.83;;
12511;SDS011;6321;53.798;10.382;2023-07-24T01:39:52;6.43;;;5.83;;
12511;SDS011;6321;53.798;10.382;2023-07-24T01:42:18;8.43;;;5.90;;
12511;SDS011;6321;53.798;10.382;2023-07-24T01:44:44;6.53;;;5.93;;
12511;SDS011;6321;53.798;10.382;2023-07-24T01:47:10;8.53;;;6.07;;
12511;SDS011;6321;53.798;10.382;2023-07-24T01:49:36;7.20;;;6.50;;
12511;SDS011;6321;53.798;10.382;2023-07-24T01:52:02;7.30;;;5.93;;
12511;SDS011;6321;53.798;10.382;2023-07-24T01:54:28;9.73;;;6.50;;
12511;SDS011;6321;53.798;10.382;2023-07-24T01:56:54;7.73;;;6.83;;
12511;SDS011;6321;53.798;10.382;2023-07-24T01:59:20;7.57;;;6.80;;
12511;SDS011;6321;53.798;10.382;2023-07-24T02:01:46;9.17;;;7.00;;
12511;SDS011;6321;53.798;10.382;2023-07-24T02:04:12;7.60;;;6.90;;
12511;SDS011;6321;53.798;10.382;2023-07-24T02:06:38;9.30;;;6.83;;
12511;SDS011;6321;53.798;10.382;2023-07-24T02:09:03;8.73;;;7.23;;
12511;SDS011;6321;53.798;10.382;2023-07-24T02:11:29;10.73;;;7.73;;
12511;SDS011;6321;53.798;10.382;2023-07-24T02:13:55;7.60;;;6.90;;
12511;SDS011;6321;53.798;10.382;2023-07-24T02:16:21;9.03;;;7.30;;
12511;SDS011;6321;53.798;10.382;2023-07-24T02:18:47;9.07;;;8.13;;
12511;SDS011;6321;53.798;10.382;2023-07-24T02:21:13;8.43;;;7.63;;
12511;SDS011;6321;53.798;10.382;2023-07-24T02:23:39;8.03;;;7.33;;
12511;SDS011;6321;53.798;10.382;2023-07-24T02:26:05;9.43;;;7.10;;
12511;SDS011;6321;53.798;10.382;2023-07-24T02:28:31;9.20;;;7.80;;
12511;SDS011;6321;53.798;10.382;2023-07-24T02:30:57;10.37;;;8.37;;
12511;SDS011;6321;53.798;10.382;2023-07-24T02:33:24;9.30;;;7.77;;
12511;SDS011;6321;53.798;10.382;2023-07-24T02:35:51;8.33;;;7.50;;
12511;SDS011;6321;53.798;10.382;2023-07-24T02:38:18;9.50;;;7.17;;
12511;SDS011;6321;53.798;10.382;2023-07-24T02:40:44;8.90;;;8.00;;
12511;SDS011;6321;53.798;10.382;2023-07-24T02:43:10;9.10;;;6.90;;
12511;SDS011;6321;53.798;10.382;2023-07-24T02:45:37;7.90;;;6.70;;
12511;SDS011;6321;53.798;10.382;2023-07-24T02:48:03;8.63;;;7.17;;
12511;SDS011;6321;53.798;10.382;2023-07-24T02:50:29;8.63;;;7.33;;
12511;SDS011;6321;53.798;10.382;2023-07-24T02:52:55;7.33;;;6.73;;
12511;SDS011;6321;53.798;10.382;2023-07-24T02:55:21;7.80;;;7.03;;
12511;SDS011;6321;53.798;10.382;2023-07-24T02:57:47;8.87;;;6.80;;
12511;SDS011;6321;53.798;10.382;2023-07-24T03:00:13;8.03;;;7.23;;
12511;SDS011;6321;53.798;10.382;2023-07-24T03:02:39;9.50;;;7.30;;
12511;SDS011;6321;53.798;10.382;2023-07-24T03:05:05;8.57;;;7.77;;
12511;SDS011;6321;53.798;10.382;2023-07-24T03:07:31;8.20;;;7.37;;
12511;SDS011;6321;53.798;10.382;2023-07-24T03:09:57;7.83;;;6.83;;
12511;SDS011;6321;53.798;10.382;2023-07-24T03:12:24;9.00;;;7.40;;
12511;SDS011;6321;53.798;10.382;2023-07-24T03:14:50;9.53;;;8.53;;
12511;SDS011;6321;53.798;10.382;2023-07-24T03:17:16;11.37;;;8.67;;
12511;SDS011;6321;53.798;10.382;2023-07-24T03:19:42;10.60;;;9.57;;
12511;SDS011;6321;53.798;10.382;2023-07-24T03:22:07;10.63;;;9.50;;
12511;SDS011;6321;53.798;10.382;2023-07-24T03:24:34;12.63;;;9.23;;
12511;SDS011;6321;53.798;10.382;2023-07-24T03:27:00;10.07;;;9.07;;
12511;SDS011;6321;53.798;10.382;2023-07-24T03:29:26;10.80;;;9.70;;
12511;SDS011;6321;53.798;10.382;2023-07-24T03:31:52;11.73;;;10.20;;
12511;SDS011;6321;53.798;10.382;2023-07-24T03:34:18;11.27;;;10.07;;
12511;SDS011;6321;53.798;10.382;2023-07-24T03:36:44;10.50;;;9.57;;
12511;SDS011;6321;53.798;10.382;2023-07-24T03:39:10;12.77;;;11.47;;
12511;SDS011;6321;53.798;10.382;2023-07-24T03:41:36;12.53;;;11.23;;
12511;SDS011;6321;53.798;10.382;2023-07-24T03:44:02;14.47;;;11.17;;
12511;SDS011;6321;53.798;10.382;2023-07-24T03:46:28;12.37;;;11.07;;
12511;SDS011;6321;53.798;10.382;2023-07-24T03:48:54;11.67;;;10.47;;
12511;SDS011;6321;53.798;10.382;2023-07-24T03:51:20;13.03;;;11.73;;
12511;SDS011;6321;53.798;10.382;2023-07-24T03:53:46;13.70;;;11.23;;
12511;SDS011;6321;53.798;10.382;2023-07-24T03:56:12;13.57;;;10.57;;
12511;SDS011;6321;53.798;10.382;2023-07-24T03:58:38;12.43;;;11.13;;
12511;SDS011;6321;53.798;10.382;2023-07-24T04:01:04;14.17;;;11.03;;
12511;SDS011;6321;53.798;10.382;2023-07-24T04:03:30;12.13;;;10.37;;
12511;SDS011;6321;53.798;10.382;2023-07-24T04:05:56;10.87;;;9.70;;
12511;SDS011;6321;53.798;10.382;2023-07-24T04:08:22;12.20;;;10.00;;
12511;SDS011;6321;53.798;10.382;2023-07-24T04:10:48;11.30;;;10.20;;
12511;SDS011;6321;53.798;10.382;2023-07-24T04:13:14;12.90;;;10.83;;
12511;SDS011;6321;53.798;10.382;2023-07-24T04:15:40;11.37;;;10.23;;
12511;SDS011;6321;53.798;10.382;2023-07-24T04:18:06;13.00;;;10.03;;
12511;SDS011;6321;53.798;10.382;2023-07-24T04:20:32;11.63;;;10.53;;
12511;SDS011;6321;53.798;10.382;2023-07-24T04:22:57;11.77;;;10.57;;
12511;SDS011;6321;53.798;10.382;2023-07-24T04:25:23;11.30;;;9.87;;
12511;SDS011;6321;53.798;10.382;2023-07-24T04:27:49;11.50;;;10.40;;
12511;SDS011;6321;53.798;10.382;2023-07-24T04:30:15;11.93;;;10.63;;
12511;SDS011;6321;53.798;10.382;2023-07-24T04:32:41;12.13;;;10.93;;
12511;SDS011;6321;53.798;10.382;2023-07-24T04:35:07;12.70;;;9.90;;
12511;SDS011;6321;53.798;10.382;2023-07-24T04:37:33;10.80;;;9.70;;
12511;SDS011;6321;53.798;10.382;2023-07-24T04:39:59;11.17;;;10.07;;
12511;SDS011;6321;53.798;10.382;2023-07-24T04:42:25;11.77;;;10.63;;
12511;SDS011;6321;53.798;10.382;2023-07-24T04:44:51;13.00;;;10.27;;
12511;SDS011;6321;53.798;10.382;2023-07-24T04:47:17;12.00;;;10.23;;
12511;SDS011;6321;53.798;10.382;2023-07-24T04:49:43;10.87;;;9.80;;
12511;SDS011;6321;53.798;10.382;2023-07-24T04:52:09;12.37;;;10.60;;
12511;SDS011;6321;53.798;10.382;2023-07-24T04:54:35;11.07;;;9.90;;
12511;SDS011;6321;53.798;10.382;2023-07-24T04:57:01;11.53;;;9.47;;
12511;SDS011;6321;53.798;10.382;2023-07-24T04:59:27;11.10;;;10.00;;
12511;SDS011;6321;53.798;10.382;2023-07-24T05:01:53;12.77;;;9.67;;
12511;SDS011;6321;53.798;10.382;2023-07-24T05:04:18;11.13;;;9.60;;
12511;SDS011;6321;53.798;10.382;2023-07-24T05:06:44;10.33;;;9.33;;
12511;SDS011;6321;53.798;10.382;2023-07-24T05:09:10;10.80;;;9.40;;
12511;SDS011;6321;53.798;10.382;2023-07-24T05:11:36;11.30;;;10.20;;
12511;SDS011;6321;53.798;10.382;2023-07-24T05:14:02;10.07;;;9.07;;
12511;SDS011;6321;53.798;10.382;2023-07-24T05:16:28;11.23;;;9.77;;
12511;SDS011;6321;53.798;10.382;2023-07-24T05:18:54;14.70;;;10.23;;
12511;SDS011;6321;53.798;10.382;2023-07-24T05:21:20;9.80;;;8.90;;
12511;SDS011;6321;53.798;10.382;2023-07-24T05:23:46;11.33;;;9.83;;
12511;SDS011;6321;53.798;10.382;2023-07-24T05:26:12;10.07;;;8.97;;
12511;SDS011;6321;53.798;10.382;2023-07-24T05:28:38;10.70;;;9.63;;
12511;SDS011;6321;53.798;10.382;2023-07-24T05:31:04;10.20;;;9.17;;
12511;SDS011;6321;53.798;10.382;2023-07-24T05:33:31;10.17;;;9.07;;
12511;SDS011;6321;53.798;10.382;2023-07-24T05:35:57;10.43;;;9.37;;
12511;SDS011;6321;53.798;10.382;2023-07-24T05:38:24;10.07;;;9.17;;
12511;SDS011;6321;53.798;10.382;2023-07-24T05:43:21;9.90;;;8.93;;
12511;SDS011;6321;53.798;10.382;2023-07-24T05:45:47;12.07;;;9.47;;
12511;SDS011;6321;53.798;10.382;2023-07-24T05:48:13;10.20;;;9.13;;
12511;SDS011;6321;53.798;10.382;2023-07-24T05:50:39;9.27;;;8.17;;
12511;SDS011;6321;53.798;10.382;2023-07-24T05:53:06;9.40;;;8.47;;
12511;SDS011;6321;53.798;10.382;2023-07-24T05:55:32;11.33;;;8.50;;
12511;SDS011;6321;53.798;10.382;2023-07-24T05:57:58;9.87;;;8.87;;
12511;SDS011;6321;53.798;10.382;2023-07-24T06:00:24;8.70;;;7.80;;
12511;SDS011;6321;53.798;10.382;2023-07-24T06:02:50;9.73;;;8.50;;
12511;SDS011;6321;53.798;10.382;2023-07-24T06:05:16;9.40;;;8.50;;
12511;SDS011;6321;53.798;10.382;2023-07-24T06:07:42;15.57;;;8.27;;
12511;SDS011;6321;53.798;10.382;2023-07-24T06:10:08;8.60;;;7.73;;
12511;SDS011;6321;53.798;10.382;2023-07-24T06:12:33;10.40;;;8.80;;
12511;SDS011;6321;53.798;10.382;2023-07-24T06:14:59;8.97;;;8.17;;
12511;SDS011;6321;53.798;10.382;2023-07-24T06:17:25;9.70;;;8.40;;
12511;SDS011;6321;53.798;10.382;2023-07-24T06:19:51;10.67;;;9.23;;
12511;SDS011;6321;53.798;10.382;2023-07-24T06:22:17;11.57;;;9.40;;
12511;SDS011;6321;53.798;10.382;2023-07-24T06:24:43;10.93;;;9.83;;
12511;SDS011;6321;53.798;10.382;2023-07-24T06:27:09;10.83;;;9.73;;
12511;SDS011;6321;53.798;10.382;2023-07-24T06:29:35;11.70;;;10.60;;
12511;SDS011;6321;53.798;10.382;2023-07-24T06:32:01;12.00;;;10.23;;
12511;SDS011;6321;53.798;10.382;2023-07-24T06:34:28;11.20;;;9.77;;
12511;SDS011;6321;53.798;10.382;2023-07-24T06:36:53;10.03;;;9.13;;
12511;SDS011;6321;53.798;10.382;2023-07-24T06:39:19;9.70;;;8.80;;
12511;SDS011;6321;53.798;10.382;2023-07-24T06:41:45;9.63;;;8.73;;
12511;SDS011;6321;53.798;10.382;2023-07-24T06:44:11;10.50;;;9.50;;
12511;SDS011;6321;53.798;10.382;2023-07-24T06:46:37;8.70;;;7.93;;
12511;SDS011;6321;53.798;10.382;2023-07-24T06:49:03;9.90;;;9.00;;
12511;SDS011;6321;53.798;10.382;2023-07-24T06:51:29;9.27;;;8.37;;
12511;SDS011;6321;53.798;10.382;2023-07-24T06:53:56;9.47;;;8.57;;
12511;SDS011;6321;53.798;10.382;2023-07-24T06:56:22;9.33;;;8.37;;
12511;SDS011;6321;53.798;10.382;2023-07-24T06:58:48;9.73;;;8.77;;
12511;SDS011;6321;53.798;10.382;2023-07-24T07:01:14;9.20;;;8.33;;
12511;SDS011;6321;53.798;10.382;2023-07-24T07:03:40;9.30;;;8.37;;
12511;SDS011;6321;53.798;10.382;2023-07-24T07:06:06;9.30;;;8.40;;
12511;SDS011;6321;53.798;10.382;2023-07-24T07:08:32;9.70;;;8.80;;
12511;SDS011;6321;53.798;10.382;2023-07-24T07:10:58;9.67;;;8.77;;
12511;SDS011;6321;53.798;10.382;2023-07-24T07:13:24;9.40;;;8.50;;
12511;SDS011;6321;53.798;10.382;2023-07-24T07:15:50;8.63;;;7.93;;
12511;SDS011;6321;53.798;10.382;2023-07-24T07:18:16;8.60;;;7.70;;
12511;SDS011;6321;53.798;10.382;2023-07-24T07:20:46;8.23;;;7.53;;
12511;SDS011;6321;53.798;10.382;2023-07-24T07:23:12;7.60;;;6.90;;
12511;SDS011;6321;53.798;10.382;2023-07-24T07:25:38;8.47;;;7.60;;
12511;SDS011;6321;53.798;10.382;2023-07-24T07:28:03;12.13;;;7.80;;
12511;SDS011;6321;53.798;10.382;2023-07-24T07:30:29;8.03;;;7.40;;
12511;SDS011;6321;53.798;10.382;2023-07-24T07:32:55;7.97;;;6.87;;
12511;SDS011;6321;53.798;10.382;2023-07-24T07:35:21;8.40;;;7.70;;
12511;SDS011;6321;53.798;10.382;2023-07-24T07:37:47;7.63;;;6.93;;
12511;SDS011;6321;53.798;10.382;2023-07-24T07:40:13;9.87;;;7.97;;
12511;SDS011;6321;53.798;10.382;2023-07-24T07:42:39;9.17;;;7.27;;
12511;SDS011;6321;53.798;10.382;2023-07-24T07:45:05;8.50;;;7.60;;
12511;SDS011;6321;53.798;10.382;2023-07-24T07:47:31;7.87;;;7.17;;
12511;SDS011;6321;53.798;10.382;2023-07-24T07:49:57;8.87;;;8.07;;
12511;SDS011;6321;53.798;10.382;2023-07-24T07:52:23;9.37;;;7.03;;
12511;SDS011;6321;53.798;10.382;2023-07-24T07:54:49;8.67;;;7.77;;
12511;SDS011;6321;53.798;10.382;2023-07-24T07:57:15;8.13;;;7.43;;
12511;SDS011;6321;53.798;10.382;2023-07-24T07:59:41;8.47;;;7.77;;
12511;SDS011;6321;53.798;10.382;2023-07-24T08:02:07;7.70;;;7.00;;
12511;SDS011;6321;53.798;10.382;2023-07-24T08:04:33;8.17;;;7.37;;
12511;SDS011;6321;53.798;10.382;2023-07-24T08:06:59;7.87;;;7.27;;
12511;SDS011;6321;53.798;10.382;2023-07-24T08:09:25;8.07;;;7.23;;
12511;SDS011;6321;53.798;10.382;2023-07-24T08:11:51;8.13;;;7.43;;
12511;SDS011;6321;53.798;10.382;2023-07-24T08:14:17;7.73;;;7.03;;
12511;SDS011;6321;53.798;10.382;2023-07-24T08:16:43;8.47;;;7.10;;
12511;SDS011;6321;53.798;10.382;2023-07-24T08:19:09;8.27;;;7.57;;
12511;SDS011;6321;53.798;10.382;2023-07-24T08:21:35;7.83;;;7.17;;
12511;SDS011;6321;53.798;10.382;2023-07-24T08:24:03;8.13;;;7.33;;
12511;SDS011;6321;53.798;10.382;2023-07-24T08:26:29;8.57;;;7.73;;
12511;SDS011;6321;53.798;10.382;2023-07-24T08:28:55;8.10;;;7.40;;
12511;SDS011;6321;53.798;10.382;2023-07-24T08:31:21;9.17;;;8.37;;
12511;SDS011;6321;53.798;10.382;2023-07-24T08:33:47;8.63;;;7.83;;
12511;SDS011;6321;53.798;10.382;2023-07-24T08:36:12;7.93;;;7.33;;
12511;SDS011;6321;53.798;10.382;2023-07-24T08:38:39;8.53;;;7.73;;
12511;SDS011;6321;53.798;10.382;2023-07-24T08:41:06;8.63;;;7.93;;
12511;SDS011;6321;53.798;10.382;2023-07-24T08:43:33;8.93;;;8.03;;
12511;SDS011;6321;53.798;10.382;2023-07-24T08:46:00;9.00;;;8.10;;
12511;SDS011;6321;53.798;10.382;2023-07-24T08:48:26;8.63;;;7.87;;
12511;SDS011;6321;53.798;10.382;2023-07-24T08:50:55;9.00;;;8.00;;
12511;SDS011;6321;53.798;10.382;2023-07-24T08:53:21;8.47;;;7.70;;
12511;SDS011;6321;53.798;10.382;2023-07-24T08:55:48;9.07;;;8.20;;
12511;SDS011;6321;53.798;10.382;2023-07-24T08:58:14;8.37;;;7.57;;
12511;SDS011;6321;53.798;10.382;2023-07-24T09:00:40;8.17;;;7.37;;
12511;SDS011;6321;53.798;10.382;2023-07-24T09:03:06;9.37;;;8.27;;
12511;SDS011;6321;53.798;10.382;2023-07-24T09:05:33;9.20;;;8.40;;
12511;SDS011;6321;53.798;10.382;2023-07-24T09:07:58;9.10;;;8.20;;
12511;SDS011;6321;53.798;10.382;2023-07-24T09:10:25;8.57;;;7.77;;
12511;SDS011;6321;53.798;10.382;2023-07-24T09:12:51;8.20;;;7.53;;
12511;SDS011;6321;53.798;10.382;2023-07-24T09:15:17;9.80;;;8.10;;
12511;SDS011;6321;53.798;10.382;2023-07-24T09:17:52;8.30;;;7.50;;
12511;SDS011;6321;53.798;10.382;2023-07-24T09:20:19;8.40;;;7.70;;
12511;SDS011;6321;53.798;10.382;2023-07-24T09:22:49;9.37;;;8.23;;
12511;SDS011;6321;53.798;10.382;2023-07-24T09:25:15;8.80;;;8.10;;
12511;SDS011;6321;53.798;10.382;2023-07-24T09:27:41;8.33;;;7.63;;
12511;SDS011;6321;53.798;10.382;2023-07-24T09:30:16;9.40;;;8.27;;
12511;SDS011;6321;53.798;10.382;2023-07-24T09:32:50;10.03;;;8.07;;
12511;SDS011;6321;53.798;10.382;2023-07-24T09:35:17;9.47;;;8.47;;
12511;SDS011;6321;53.798;10.382;2023-07-24T09:37:43;9.17;;;8.30;;
12511;SDS011;6321;53.798;10.382;2023-07-24T09:40:09;7.80;;;7.00;;
12511;SDS011;6321;53.798;10.382;2023-07-24T09:42:36;9.00;;;8.10;;
12511;SDS011;6321;53.798;10.382;2023-07-24T09:45:02;8.43;;;7.47;;
12511;SDS011;6321;53.798;10.382;2023-07-24T09:47:29;10.63;;;9.00;;
12511;SDS011;6321;53.798;10.382;2023-07-24T09:49:55;9.07;;;8.17;;
12511;SDS011;6321;53.798;10.382;2023-07-24T09:52:21;9.53;;;8.57;;
12511;SDS011;6321;53.798;10.382;2023-07-24T09:57:19;7.57;;;6.73;;
12511;SDS011;6321;53.798;10.382;2023-07-24T09:59:45;7.40;;;6.77;;
12511;SDS011;6321;53.798;10.382;2023-07-24T10:02:11;8.23;;;6.40;;
12511;SDS011;6321;53.798;10.382;2023-07-24T10:04:38;7.37;;;6.67;;
12511;SDS011;6321;53.798;10.382;2023-07-24T10:07:06;7.07;;;6.37;;
12511;SDS011;6321;53.798;10.382;2023-07-24T10:09:33;6.77;;;6.07;;
12511;SDS011;6321;53.798;10.382;2023-07-24T10:11:59;7.23;;;6.53;;
12511;SDS011;6321;53.798;10.382;2023-07-24T10:14:26;7.07;;;6.47;;
12511;SDS011;6321;53.798;10.382;2023-07-24T10:16:52;7.50;;;6.13;;
12511;SDS011;6321;53.798;10.382;2023-07-24T10:19:20;6.63;;;6.03;;
12511;SDS011;6321;53.798;10.382;2023-07-24T10:21:50;7.50;;;6.80;;
12511;SDS011;6321;53.798;10.382;2023-07-24T10:24:17;6.77;;;6.17;;
12511;SDS011;6321;53.798;10.382;2023-07-24T10:26:43;6.90;;;6.30;;
12511;SDS011;6321;53.798;10.382;2023-07-24T10:29:09;6.90;;;6.03;;
12511;SDS011;6321;53.798;10.382;2023-07-24T10:31:35;6.80;;;5.93;;
12511;SDS011;6321;53.798;10.382;2023-07-24T10:34:05;6.50;;;6.00;;
12511;SDS011;6321;53.798;10.382;2023-07-24T10:36:35;8.03;;;6.13;;
12511;SDS011;6321;53.798;10.382;2023-07-24T10:39:01;6.60;;;6.03;;
12511;SDS011;6321;53.798;10.382;2023-07-24T10:41:35;7.00;;;6.33;;
12511;SDS011;6321;53.798;10.382;2023-07-24T10:44:01;7.83;;;6.70;;
12511;SDS011;6321;53.798;10.382;2023-07-24T10:46:37;6.07;;;5.47;;
12511;SDS011;6321;53.798;10.382;2023-07-24T10:49:03;6.40;;;5.80;;
12511;SDS011;6321;53.798;10.382;2023-07-24T10:51:29;7.30;;;6.10;;
12511;SDS011;6321;53.798;10.382;2023-07-24T10:53:59;6.80;;;6.20;;
12511;SDS011;6321;53.798;10.382;2023-07-24T10:56:25;6.07;;;5.50;;
12511;SDS011;6321;53.798;10.382;2023-07-24T10:58:51;6.70;;;5.57;;
12511;SDS011;6321;53.798;10.382;2023-07-24T11:01:17;6.47;;;5.87;;
12511;SDS011;6321;53.798;10.382;2023-07-24T11:03:44;9.40;;;6.20;;
12511;SDS011;6321;53.798;10.382;2023-07-24T11:06:20;8.37;;;6.40;;
12511;SDS011;6321;53.798;10.382;2023-07-24T11:08:54;6.80;;;6.10;;
12511;SDS011;6321;53.798;10.382;2023-07-24T11:11:27;6.70;;;6.00;;
12511;SDS011;6321;53.798;10.382;2023-07-24T11:13:54;7.00;;;6.30;;
12511;SDS011;6321;53.798;10.382;2023-07-24T11:16:20;7.20;;;5.63;;
12511;SDS011;6321;53.798;10.382;2023-07-24T11:18:46;6.47;;;5.87;;
12511;SDS011;6321;53.798;10.382;2023-07-24T11:21:13;6.10;;;5.60;;
12511;SDS011;6321;53.798;10.382;2023-07-24T11:23:49;7.43;;;5.47;;
12511;SDS011;6321;53.798;10.382;2023-07-24T11:26:15;6.13;;;5.40;;
12511;SDS011;6321;53.798;10.382;2023-07-24T11:28:41;6.03;;;5.47;;
12511;SDS011;6321;53.798;10.382;2023-07-24T11:31:07;6.37;;;5.43;;
12511;SDS011;6321;53.798;10.382;2023-07-24T11:33:36;5.93;;;5.33;;
12511;SDS011;6321;53.798;10.382;2023-07-24T11:36:02;5.70;;;5.20;;
12511;SDS011;6321;53.798;10.382;2023-07-24T11:38:40;5.33;;;4.83;;
12511;SDS011;6321;53.798;10.382;2023-07-24T11:44:06;4.67;;;4.23;;
12511;SDS011;6321;53.798;10.382;2023-07-24T11:46:32;6.07;;;5.43;;
12511;SDS011;6321;53.798;10.382;2023-07-24T11:49:11;6.30;;;5.07;;
12511;SDS011;6321;53.798;10.382;2023-07-24T11:52:02;6.17;;;5.10;;
12511;SDS011;6321;53.798;10.382;2023-07-24T11:57:18;5.23;;;4.83;;
12511;SDS011;6321;53.798;10.382;2023-07-24T11:59:44;5.97;;;5.23;;
12511;SDS011;6321;53.798;10.382;2023-07-24T12:02:10;5.17;;;4.73;;
12511;SDS011;6321;53.798;10.382;2023-07-24T12:04:37;5.37;;;4.97;;
12511;SDS011;6321;53.798;10.382;2023-07-24T12:07:12;5.10;;;4.60;;
12511;SDS011;6321;53.798;10.382;2023-07-24T12:09:38;7.43;;;4.90;;
12511;SDS011;6321;53.798;10.382;2023-07-24T12:12:04;5.63;;;5.00;;
12511;SDS011;6321;53.798;10.382;2023-07-24T12:14:33;5.57;;;4.90;;
12511;SDS011;6321;53.798;10.382;2023-07-24T12:17:02;6.20;;;5.60;;
12511;SDS011;6321;53.798;10.382;2023-07-24T12:19:28;5.77;;;5.23;;
12511;SDS011;6321;53.798;10.382;2023-07-24T12:21:54;5.53;;;5.00;;
12511;SDS011;6321;53.798;10.382;2023-07-24T12:24:20;5.77;;;4.97;;
12511;SDS011;6321;53.798;10.382;2023-07-24T12:26:46;6.50;;;4.93;;
12511;SDS011;6321;53.798;10.382;2023-07-24T12:29:12;6.13;;;5.53;;
12511;SDS011;6321;53.798;10.382;2023-07-24T12:31:38;5.33;;;4.83;;
12511;SDS011;6321;53.798;10.382;2023-07-24T12:34:04;5.93;;;5.33;;
12511;SDS011;6321;53.798;10.382;2023-07-24T12:36:30;6.30;;;5.23;;
12511;SDS011;6321;53.798;10.382;2023-07-24T12:38:55;5.53;;;4.50;;
12511;SDS011;6321;53.798;10.382;2023-07-24T12:41:21;5.37;;;4.87;;
12511;SDS011;6321;53.798;10.382;2023-07-24T12:43:47;5.30;;;4.80;;
12511;SDS011;6321;53.798;10.382;2023-07-24T12:46:13;5.40;;;4.90;;
12511;SDS011;6321;53.798;10.382;2023-07-24T12:48:39;6.93;;;4.73;;
12511;SDS011;6321;53.798;10.382;2023-07-24T12:51:05;5.20;;;4.70;;
12511;SDS011;6321;53.798;10.382;2023-07-24T12:53:31;5.70;;;5.10;;
12511;SDS011;6321;53.798;10.382;2023-07-24T12:55:57;5.50;;;5.00;;
12511;SDS011;6321;53.798;10.382;2023-07-24T12:58:23;5.17;;;4.67;;
12511;SDS011;6321;53.798;10.382;2023-07-24T13:00:49;5.53;;;4.80;;
12511;SDS011;6321;53.798;10.382;2023-07-24T13:03:14;5.43;;;5.03;;
12511;SDS011;6321;53.798;10.382;2023-07-24T13:05:41;5.73;;;5.23;;
12511;SDS011;6321;53.798;10.382;2023-07-24T13:08:07;4.77;;;4.33;;
12511;SDS011;6321;53.798;10.382;2023-07-24T13:10:33;5.47;;;4.17;;
12511;SDS011;6321;53.798;10.382;2023-07-24T13:12:59;7.27;;;4.70;;
12511;SDS011;6321;53.798;10.382;2023-07-24T13:15:26;5.53;;;5.03;;
12511;SDS011;6321;53.798;10.382;2023-07-24T13:17:52;5.10;;;4.60;;
12511;SDS011;6321;53.798;10.382;2023-07-24T13:20:17;5.40;;;4.90;;
12511;SDS011;6321;53.798;10.382;2023-07-24T13:22:43;5.33;;;4.93;;
12511;SDS011;6321;53.798;10.382;2023-07-24T13:25:11;5.47;;;4.93;;
12511;SDS011;6321;53.798;10.382;2023-07-24T13:27:37;4.70;;;4.20;;
12511;SDS011;6321;53.798;10.382;2023-07-24T13:30:03;5.43;;;4.93;;
12511;SDS011;6321;53.798;10.382;2023-07-24T13:32:29;4.80;;;4.40;;
12511;SDS011;6321;53.798;10.382;2023-07-24T13:34:55;6.20;;;4.90;;
12511;SDS011;6321;53.798;10.382;2023-07-24T13:37:22;5.40;;;4.90;;
12511;SDS011;6321;53.798;10.382;2023-07-24T13:39:49;4.97;;;4.47;;
12511;SDS011;6321;53.798;10.382;2023-07-24T13:42:15;5.83;;;4.77;;
12511;SDS011;6321;53.798;10.382;2023-07-24T13:44:41;5.00;;;4.30;;
12511;SDS011;6321;53.798;10.382;2023-07-24T13:47:06;5.17;;;4.67;;
12511;SDS011;6321;53.798;10.382;2023-07-24T13:49:32;3.63;;;3.37;;
12511;SDS011;6321;53.798;10.382;2023-07-24T13:51:58;4.20;;;3.80;;
12511;SDS011;6321;53.798;10.382;2023-07-24T13:54:24;5.27;;;4.40;;
12511;SDS011;6321;53.798;10.382;2023-07-24T13:56:50;4.43;;;4.03;;
12511;SDS011;6321;53.798;10.382;2023-07-24T13:59:16;4.90;;;4.40;;
12511;SDS011;6321;53.798;10.382;2023-07-24T14:01:42;6.23;;;4.57;;
12511;SDS011;6321;53.798;10.382;2023-07-24T14:04:08;5.40;;;4.90;;
12511;SDS011;6321;53.798;10.382;2023-07-24T14:06:34;5.80;;;4.50;;
12511;SDS011;6321;53.798;10.382;2023-07-24T14:09:00;4.43;;;4.00;;
12511;SDS011;6321;53.798;10.382;2023-07-24T14:11:26;4.43;;;4.13;;
12511;SDS011;6321;53.798;10.382;2023-07-24T14:13:53;4.47;;;4.07;;
12511;SDS011;6321;53.798;10.382;2023-07-24T14:16:18;4.63;;;4.30;;
12511;SDS011;6321;53.798;10.382;2023-07-24T14:18:44;4.70;;;4.23;;
12511;SDS011;6321;53.798;10.382;2023-07-24T14:21:10;5.13;;;4.73;;
12511;SDS011;6321;53.798;10.382;2023-07-24T14:23:36;5.10;;;4.70;;
12511;SDS011;6321;53.798;10.382;2023-07-24T14:26:02;5.10;;;4.20;;
12511;SDS011;6321;53.798;10.382;2023-07-24T14:28:28;4.47;;;4.17;;
12511;SDS011;6321;53.798;10.382;2023-07-24T14:30:54;4.73;;;4.23;;
12511;SDS011;6321;53.798;10.382;2023-07-24T14:33:20;5.10;;;4.50;;
12511;SDS011;6321;53.798;10.382;2023-07-24T14:35:47;5.37;;;4.80;;
12511;SDS011;6321;53.798;10.382;2023-07-24T14:38:13;5.63;;;4.57;;
12511;SDS011;6321;53.798;10.382;2023-07-24T14:40:39;6.00;;;4.70;;
12511;SDS011;6321;53.798;10.382;2023-07-24T14:43:05;4.53;;;4.13;;
12511;SDS011;6321;53.798;10.382;2023-07-24T14:45:31;5.20;;;4.80;;
12511;SDS011;6321;53.798;10.382;2023-07-24T14:47:57;5.00;;;4.20;;
12511;SDS011;6321;53.798;10.382;2023-07-24T14:50:22;4.97;;;4.50;;
12511;SDS011;6321;53.798;10.382;2023-07-24T14:52:48;5.13;;;4.70;;
12511;SDS011;6321;53.798;10.382;2023-07-24T14:55:14;4.80;;;4.30;;